Driscoll, Texas
Current Conditions -  °F | °C
As of 5:56 AM on Monday 26 Jan 2015 (Local Time) from KNQI Reporting Station
Scattered Clouds Scattered Clouds  
Wind Chill: 45°   Ceiling: Unl
Heat Index: 45°   Visibility: 10mi
Dew Point: 40°   Wind: 3mph
Humidity: 82%   Direction: 280°W
Pressure: 30.26"   Gusts: NA
Location:  27.67°N, 97.75°W
Report Text: KNQI 261156Z 28003KT 10SM SCT250 07/04 A3026 RMK AO2 SLP242 T00720044 10111 20067 53009 $
Loading
Personal Weather Stations






























Interactive Weather Map New forecast layout! Learn more

10-Day Weather Forecast

Advertisements
Track Severe Weather on mobile